Washington, District of Columbia
Traffic Map
Current Weather Conditions
Washington, District of Columbia
Broken Clouds
Broken Clouds
49°
Feels Like: 49°
Wind Chill: 49° Ceiling: 20000
Heat Index: 49° Visibility: 10mi
Dew Point: 40° Wind: 3mph
Humidity: 71% Direction: 30° (NNE)
Pressure: 30.32in Gusts: 0mph
Raw Report DataKDCA 281052Z 03003KT 10SM FEW075 SCT100 BKN200 09/04 A3032 RMK AO2 SLP268 T00940044
Traffic Incident Summary
Active as of:
Severity:
Category:
InformationThere was an issue retrieving the traffic information for this location. Please try a different location or try again shortly.
Advertisements
Track Severe Weather on mobile